TAF and METAR

Decoding for American and Canadian METARs and TAFs is not fully implemented.

Could not understand the following METAR

PAFB 171958Z AUTO 00000KT 10SM CLR M28/M31 A2991 RMK AO2 SLP149 T12801307 $

TAF for Wainwright Army Airfield

TAF AMD PAFB 171620Z 1716/1822 03003KT 9999 FEW100 SCT180 QNH2988INS TXM22/1805Z TNM28/1717Z
Report created 17. jan 17:20

between 17. jan 17:00 - 18. jan 23:00

wind 3 knots from NNE (030°) visibility > 10km some clouds (~25% cover) at 10000 feet scattered clouds (~50% cover) at 18000 feet
Wainwright Army Airfield in United States of America at 137m

Latest 5 airports